createdAt,value
2022-08-11T00:00:15.602Z,10.60
2022-08-11T00:03:08.524Z,10.50
2022-08-11T00:05:55.980Z,10.90
2022-08-11T00:08:28.290Z,9.20
2022-08-11T00:11:05.272Z,11.50
2022-08-11T00:13:46.893Z,8.40
2022-08-11T00:16:23.110Z,8.40
2022-08-11T00:18:58.794Z,9.00
2022-08-11T00:22:02.450Z,10.60
2022-08-11T00:24:18.871Z,9.80
2022-08-11T00:26:53.412Z,13.30
2022-08-11T00:29:23.017Z,9.40
2022-08-11T00:31:56.993Z,12.20
2022-08-11T00:34:28.974Z,9.20
2022-08-11T00:37:17.443Z,10.40
2022-08-11T00:39:54.976Z,11.20
2022-08-11T00:42:32.581Z,8.00
2022-08-11T00:45:31.220Z,10.00
2022-08-11T00:48:30.729Z,8.40
2022-08-11T00:52:04.725Z,10.20
2022-08-11T00:54:46.955Z,8.40
2022-08-11T00:57:36.877Z,7.90
2022-08-11T01:00:24.986Z,8.60
2022-08-11T01:03:21.212Z,9.40
2022-08-11T01:06:11.505Z,8.60
2022-08-11T01:09:09.479Z,7.30
2022-08-11T01:12:36.841Z,7.80
2022-08-11T01:15:27.654Z,7.30
2022-08-11T01:18:55.103Z,7.70
2022-08-11T01:22:07.424Z,8.30
2022-08-11T01:25:15.843Z,9.90
2022-08-11T01:28:21.701Z,8.00
2022-08-11T01:31:27.658Z,7.60
2022-08-11T01:34:17.750Z,7.20
2022-08-11T01:37:49.005Z,9.20
2022-08-11T01:40:53.528Z,8.10
2022-08-11T01:44:27.446Z,7.80
2022-08-11T01:47:54.140Z,7.70
2022-08-11T01:50:57.289Z,8.10
2022-08-11T01:53:45.133Z,8.50
2022-08-11T01:56:38.797Z,6.70
2022-08-11T01:59:33.595Z,7.80
2022-08-11T02:02:54.418Z,8.20
2022-08-11T02:05:50.842Z,9.00
2022-08-11T02:08:43.203Z,10.20
2022-08-11T02:11:30.659Z,10.90
2022-08-11T02:14:30.223Z,7.80
2022-08-11T02:17:48.267Z,8.20
2022-08-11T02:21:09.896Z,9.10
2022-08-11T02:24:05.070Z,8.00
2022-08-11T02:26:50.788Z,9.70
2022-08-11T02:29:38.936Z,8.00
2022-08-11T02:32:32.306Z,11.50
2022-08-11T02:35:29.767Z,10.20
2022-08-11T02:38:04.077Z,12.80
2022-08-11T02:41:01.847Z,11.00
2022-08-11T02:43:59.209Z,15.30
2022-08-11T02:46:49.317Z,10.70
2022-08-11T02:50:06.742Z,9.70
2022-08-11T02:52:51.898Z,10.80
2022-08-11T02:55:55.593Z,7.60
2022-08-11T02:59:20.512Z,9.60
2022-08-11T03:02:31.905Z,10.10
2022-08-11T03:05:17.486Z,9.00
2022-08-11T03:07:58.764Z,11.50
2022-08-11T03:10:42.968Z,8.60
2022-08-11T03:13:47.647Z,8.70
2022-08-11T03:16:46.234Z,8.90
2022-08-11T03:19:57.725Z,10.60
2022-08-11T03:23:31.032Z,9.00
2022-08-11T03:26:10.671Z,9.10
2022-08-11T03:29:25.020Z,11.90
2022-08-11T03:32:08.359Z,10.60
2022-08-11T03:34:41.386Z,13.20
2022-08-11T03:37:47.204Z,9.40
2022-08-11T03:42:01.312Z,11.10
2022-08-11T03:44:33.343Z,10.20
2022-08-11T03:47:23.417Z,9.90
2022-08-11T03:50:24.512Z,11.70
2022-08-11T03:54:01.861Z,9.50
2022-08-11T03:56:55.328Z,12.30
2022-08-11T03:59:45.931Z,10.30
2022-08-11T04:02:29.976Z,9.70
2022-08-11T04:05:48.332Z,13.40
2022-08-11T04:08:38.006Z,10.00
2022-08-11T04:11:26.354Z,10.40
2022-08-11T04:14:40.615Z,10.80
2022-08-11T04:17:23.837Z,9.80
2022-08-11T04:20:34.099Z,8.90
2022-08-11T04:24:37.236Z,9.10
2022-08-11T04:26:39.570Z,9.50
2022-08-11T04:30:03.848Z,9.10
2022-08-11T04:33:02.958Z,9.60
2022-08-11T04:35:51.428Z,10.30
2022-08-11T04:38:59.114Z,9.70
2022-08-11T04:42:21.663Z,11.20
2022-08-11T04:45:12.571Z,8.50
2022-08-11T04:48:57.444Z,10.80
2022-08-11T04:52:37.902Z,8.30
2022-08-11T04:56:11.729Z,7.50
2022-08-11T04:59:48.512Z,10.80
2022-08-11T05:02:57.647Z,9.60
2022-08-11T05:06:20.095Z,8.40
2022-08-11T05:09:26.262Z,9.80
2022-08-11T05:12:10.622Z,9.70
2022-08-11T05:15:12.070Z,9.50
2022-08-11T05:18:35.341Z,10.50
2022-08-11T05:21:29.726Z,9.50
2022-08-11T05:25:04.500Z,13.30
2022-08-11T05:28:47.513Z,12.40
2022-08-11T05:31:39.014Z,10.70
2022-08-11T05:34:42.928Z,9.90
2022-08-11T05:37:42.847Z,12.40
2022-08-11T05:40:33.447Z,18.30
2022-08-11T05:43:31.217Z,16.50
2022-08-11T05:46:25.610Z,18.00
2022-08-11T05:49:14.468Z,14.10
2022-08-11T05:52:05.607Z,13.30
2022-08-11T05:55:06.124Z,13.10
2022-08-11T05:57:50.952Z,11.30
2022-08-11T06:00:23.497Z,12.20
2022-08-11T06:03:04.432Z,9.20
2022-08-11T06:05:44.120Z,9.10
2022-08-11T06:08:15.071Z,8.70
2022-08-11T06:10:45.809Z,9.40
2022-08-11T06:13:18.736Z,8.10
2022-08-11T06:15:52.694Z,9.90
2022-08-11T06:18:22.069Z,7.10
2022-08-11T06:20:58.568Z,8.20
2022-08-11T06:23:36.200Z,7.30
2022-08-11T06:26:14.427Z,10.70
2022-08-11T06:28:46.487Z,10.30
2022-08-11T06:31:21.025Z,7.20
2022-08-11T06:34:34.659Z,6.80
2022-08-11T06:37:34.467Z,7.90
2022-08-11T06:40:40.638Z,7.50
2022-08-11T06:43:21.821Z,7.70
2022-08-11T06:46:08.835Z,8.90
2022-08-11T06:48:41.656Z,7.40
2022-08-11T06:51:14.917Z,7.90
2022-08-11T06:54:04.920Z,8.10
2022-08-11T07:00:07.811Z,6.20
2022-08-11T07:02:56.519Z,7.70
2022-08-11T07:05:44.095Z,8.40
2022-08-11T07:09:15.045Z,6.60
2022-08-11T07:12:21.412Z,6.40
2022-08-11T07:15:15.410Z,7.90
2022-08-11T07:18:12.854Z,8.90
2022-08-11T07:21:02.362Z,7.90
2022-08-11T07:23:54.669Z,6.20
2022-08-11T07:26:46.424Z,5.00
2022-08-11T07:29:16.974Z,7.00
2022-08-11T07:31:54.228Z,6.00
2022-08-11T07:34:38.574Z,8.00
2022-08-11T07:37:18.217Z,9.00
2022-08-11T07:39:50.098Z,8.60
2022-08-11T07:42:27.511Z,7.80
2022-08-11T07:45:16.432Z,6.80
2022-08-11T07:48:05.390Z,7.40
2022-08-11T07:50:56.226Z,9.30
2022-08-11T07:53:25.883Z,8.00
2022-08-11T07:55:58.600Z,5.80
2022-08-11T07:58:53.240Z,6.90
2022-08-11T08:01:44.355Z,6.40
2022-08-11T08:04:36.227Z,6.90
2022-08-11T08:07:24.984Z,6.30
2022-08-11T08:10:15.847Z,6.00
2022-08-11T08:13:04.250Z,6.00
2022-08-11T08:15:52.074Z,7.10
2022-08-11T08:18:26.751Z,5.80
2022-08-11T08:21:12.409Z,7.80
2022-08-11T08:23:46.306Z,6.40
2022-08-11T08:26:36.490Z,6.60
2022-08-11T08:29:26.677Z,7.60
2022-08-11T08:31:57.233Z,8.80
2022-08-11T08:34:27.412Z,6.90
2022-08-11T08:37:01.734Z,7.40
2022-08-11T08:39:34.866Z,7.70
2022-08-11T08:42:11.641Z,10.00
2022-08-11T08:44:57.302Z,7.70
2022-08-11T08:47:41.903Z,6.50
2022-08-11T08:50:21.742Z,7.00
2022-08-11T08:53:07.804Z,7.20
2022-08-11T08:55:37.002Z,7.60
2022-08-11T08:58:06.388Z,6.80
2022-08-11T09:00:45.829Z,6.10
2022-08-11T09:03:39.932Z,6.80
2022-08-11T09:06:04.638Z,6.70
2022-08-11T09:08:35.500Z,7.20
2022-08-11T09:11:24.830Z,6.30
2022-08-11T09:14:05.105Z,8.90
2022-08-11T09:16:39.725Z,6.10
2022-08-11T09:19:09.635Z,5.20
2022-08-11T09:21:49.082Z,6.30
2022-08-11T09:24:38.851Z,8.40
2022-08-11T09:27:09.153Z,5.80
2022-08-11T09:29:38.944Z,5.80
2022-08-11T09:32:09.261Z,5.70
2022-08-11T09:34:39.946Z,8.10
2022-08-11T09:37:55.934Z,6.70
2022-08-11T09:40:30.827Z,5.60
2022-08-11T09:43:22.397Z,6.20
2022-08-11T09:45:54.348Z,6.00
2022-08-11T09:48:26.354Z,4.40
2022-08-11T09:50:59.254Z,5.40
2022-08-11T09:53:36.198Z,7.00
2022-08-11T09:56:38.677Z,6.90
2022-08-11T09:59:08.141Z,4.60
2022-08-11T10:01:59.647Z,5.50
2022-08-11T10:04:45.999Z,6.50
2022-08-11T10:07:20.348Z,6.10
2022-08-11T10:10:03.201Z,4.50
2022-08-11T10:12:42.780Z,5.40
2022-08-11T10:15:38.715Z,4.70
2022-08-11T10:18:42.723Z,4.70
2022-08-11T10:21:25.436Z,6.20
2022-08-11T10:24:15.218Z,4.90
2022-08-11T10:26:55.030Z,5.40
2022-08-11T10:29:52.056Z,6.20
2022-08-11T10:32:58.748Z,5.20
2022-08-11T10:35:33.186Z,4.90
2022-08-11T10:38:07.700Z,4.50
2022-08-11T10:40:41.080Z,5.80
2022-08-11T10:43:14.542Z,5.00
2022-08-11T10:46:30.396Z,4.10
2022-08-11T10:49:01.556Z,8.00
2022-08-11T10:51:53.737Z,6.70
2022-08-11T10:54:43.005Z,7.80
2022-08-11T10:57:34.200Z,5.70
2022-08-11T11:00:07.193Z,5.20
2022-08-11T11:02:36.897Z,4.80
2022-08-11T11:05:25.289Z,5.40
2022-08-11T11:08:29.873Z,4.80
2022-08-11T11:11:00.135Z,4.90
2022-08-11T11:13:53.361Z,6.00
2022-08-11T11:16:44.377Z,4.80
2022-08-11T11:19:15.563Z,4.50
2022-08-11T11:21:44.752Z,5.30
2022-08-11T11:24:42.624Z,5.70
2022-08-11T11:27:53.811Z,4.60
2022-08-11T11:30:28.245Z,5.50
2022-08-11T11:33:09.107Z,5.60
2022-08-11T11:35:45.017Z,4.70
2022-08-11T11:38:14.319Z,6.70
2022-08-11T11:40:43.948Z,4.80
2022-08-11T11:43:13.268Z,4.50
2022-08-11T11:45:43.042Z,4.20
2022-08-11T11:48:12.623Z,7.90
2022-08-11T11:50:42.131Z,4.10
2022-08-11T11:53:12.220Z,5.00
2022-08-11T11:55:41.931Z,6.00
2022-08-11T11:58:30.026Z,3.90
2022-08-11T12:01:20.319Z,5.10
2022-08-11T12:03:52.725Z,4.00
2022-08-11T12:06:24.491Z,5.30
2022-08-11T12:08:57.536Z,5.30
2022-08-11T12:11:47.119Z,5.10
2022-08-11T12:14:22.133Z,6.70
2022-08-11T12:16:51.661Z,5.40
2022-08-11T12:19:26.288Z,4.40
2022-08-11T12:22:17.706Z,6.00
2022-08-11T12:25:06.157Z,4.80
2022-08-11T12:27:38.893Z,5.60
2022-08-11T12:30:09.674Z,4.90
2022-08-11T12:32:41.654Z,5.20
2022-08-11T12:35:11.724Z,5.10
2022-08-11T12:38:01.234Z,5.70
2022-08-11T12:44:06.089Z,5.20
2022-08-11T12:46:39.070Z,6.80
2022-08-11T12:49:34.900Z,5.20
2022-08-11T12:52:15.260Z,8.30
2022-08-11T12:54:58.025Z,5.30
2022-08-11T12:57:57.386Z,4.40
2022-08-11T13:00:47.266Z,4.90
2022-08-11T13:03:39.508Z,6.40
2022-08-11T13:06:09.659Z,5.30
2022-08-11T13:08:40.295Z,5.90
2022-08-11T13:11:55.872Z,4.00
2022-08-11T13:14:19.929Z,7.10
2022-08-11T13:17:08.587Z,6.30
2022-08-11T13:19:38.598Z,5.20
2022-08-11T13:22:07.639Z,5.30
2022-08-11T13:24:37.551Z,5.20
2022-08-11T13:27:07.397Z,6.00
2022-08-11T13:29:37.034Z,5.20
2022-08-11T13:32:06.243Z,5.00
2022-08-11T13:34:41.983Z,4.70
2022-08-11T13:37:14.658Z,4.40
2022-08-11T13:39:48.709Z,4.80
2022-08-11T13:42:21.458Z,4.60
2022-08-11T13:44:50.759Z,4.80
2022-08-11T13:47:23.952Z,4.40
2022-08-11T13:49:53.253Z,6.90
2022-08-11T13:52:22.452Z,5.70
2022-08-11T13:54:53.538Z,7.50
2022-08-11T13:58:18.289Z,5.10
2022-08-11T14:00:25.094Z,4.60
2022-08-11T14:02:58.874Z,7.30
2022-08-11T14:05:34.425Z,7.00
2022-08-11T14:08:37.085Z,6.30
2022-08-11T14:12:21.692Z,8.30
2022-08-11T14:14:17.058Z,4.10
2022-08-11T14:16:48.547Z,6.60
2022-08-11T14:19:21.439Z,6.20
2022-08-11T14:22:10.894Z,7.80
2022-08-11T14:24:43.224Z,5.80
2022-08-11T14:28:30.679Z,4.20
2022-08-11T14:30:05.542Z,5.90
2022-08-11T14:32:34.756Z,6.70
2022-08-11T14:35:22.150Z,5.10
2022-08-11T14:37:51.308Z,4.00
2022-08-11T14:40:39.159Z,5.00
2022-08-11T14:44:12.255Z,6.00
2022-08-11T14:46:35.528Z,5.40
2022-08-11T14:49:05.022Z,4.80
2022-08-11T14:51:34.857Z,5.40
2022-08-11T14:54:23.206Z,9.20
2022-08-11T14:56:54.712Z,5.80
2022-08-11T14:59:26.109Z,6.00
2022-08-11T15:02:14.049Z,6.70
2022-08-11T15:04:43.348Z,6.60
2022-08-11T15:07:17.226Z,4.80
2022-08-11T15:10:11.825Z,6.00
2022-08-11T15:12:39.642Z,6.30
2022-08-11T15:15:29.193Z,5.80
2022-08-11T15:18:02.213Z,5.50
2022-08-11T15:20:53.733Z,7.20
2022-08-11T15:23:41.439Z,6.80
2022-08-11T15:26:48.836Z,6.50
2022-08-11T15:29:42.916Z,5.60
2022-08-11T15:32:22.148Z,5.60
2022-08-11T15:35:22.721Z,4.40
2022-08-11T15:37:57.949Z,5.50
2022-08-11T15:40:59.581Z,5.60
2022-08-11T15:44:15.170Z,5.00
2022-08-11T15:46:53.776Z,7.10
2022-08-11T15:50:12.721Z,5.80
2022-08-11T15:52:30.304Z,7.90
2022-08-11T15:55:02.606Z,6.10
2022-08-11T15:57:49.980Z,5.60
2022-08-11T16:00:38.532Z,5.60
2022-08-11T16:04:05.550Z,5.30
2022-08-11T16:06:18.707Z,6.20
2022-08-11T16:08:48.736Z,4.20
2022-08-11T16:11:21.858Z,4.70
2022-08-11T16:14:11.908Z,5.00
2022-08-11T16:16:43.391Z,4.70
2022-08-11T16:19:13.729Z,5.70
2022-08-11T16:21:44.359Z,5.80
2022-08-11T16:27:03.990Z,7.10
2022-08-11T16:27:14.335Z,7.10
2022-08-11T16:29:48.135Z,6.10
2022-08-11T16:32:24.088Z,7.10
2022-08-11T16:35:25.573Z,7.80
2022-08-11T16:38:15.660Z,5.90
2022-08-11T16:40:45.378Z,5.70
2022-08-11T16:43:40.170Z,3.90
2022-08-11T16:46:19.715Z,4.80
2022-08-11T16:48:53.744Z,6.70
2022-08-11T16:51:23.637Z,7.40
2022-08-11T16:54:04.798Z,9.40
2022-08-11T16:56:45.796Z,7.00
2022-08-11T16:59:32.707Z,8.40
2022-08-11T17:02:39.794Z,7.10
2022-08-11T17:05:54.716Z,6.00
2022-08-11T17:08:56.630Z,5.50
2022-08-11T17:11:50.819Z,7.20
2022-08-11T17:14:36.523Z,4.60
2022-08-11T17:17:32.122Z,5.40
2022-08-11T17:20:41.192Z,6.30
2022-08-11T17:23:20.183Z,9.10
2022-08-11T17:25:59.591Z,4.30
2022-08-11T17:28:35.385Z,6.20
2022-08-11T17:31:24.848Z,4.80
2022-08-11T17:34:16.064Z,5.80
2022-08-11T17:36:45.949Z,8.00
2022-08-11T17:39:16.415Z,4.00
2022-08-11T17:42:05.465Z,5.20
2022-08-11T17:44:54.402Z,7.10
2022-08-11T17:47:46.468Z,6.50
2022-08-11T17:50:17.825Z,6.00
2022-08-11T17:53:07.597Z,7.30
2022-08-11T17:55:58.185Z,7.60
2022-08-11T17:58:46.450Z,6.70
2022-08-11T18:01:16.356Z,8.20
2022-08-11T18:03:57.587Z,7.10
2022-08-11T18:06:33.696Z,5.20
2022-08-11T18:09:35.464Z,10.70
2022-08-11T18:12:27.397Z,8.40
2022-08-11T18:15:16.563Z,9.10
2022-08-11T18:18:04.309Z,6.70
2022-08-11T18:20:54.079Z,6.60
2022-08-11T18:23:46.835Z,6.30
2022-08-11T18:26:40.197Z,8.60
2022-08-11T18:29:29.670Z,9.00
2022-08-11T18:32:21.184Z,9.50
2022-08-11T18:35:14.353Z,8.70
2022-08-11T18:38:08.130Z,8.80
2022-08-11T18:40:57.296Z,10.30
2022-08-11T18:43:48.817Z,9.70
2022-08-11T18:46:38.804Z,8.40
2022-08-11T18:50:02.148Z,7.80
2022-08-11T18:52:50.520Z,7.40
2022-08-11T18:55:39.892Z,6.70
2022-08-11T18:58:31.312Z,12.20
2022-08-11T19:01:21.056Z,11.00
2022-08-11T19:04:11.903Z,14.40
2022-08-11T19:07:07.722Z,16.40
2022-08-11T19:09:57.402Z,13.40
2022-08-11T19:12:46.262Z,11.10
2022-08-11T19:15:34.405Z,11.30
2022-08-11T19:18:24.288Z,13.10
2022-08-11T19:21:14.174Z,14.00
2022-08-11T19:24:07.026Z,14.20
2022-08-11T19:26:55.682Z,14.70
2022-08-11T19:30:05.093Z,14.10
2022-08-11T19:32:52.960Z,16.20
2022-08-11T19:35:40.693Z,13.20
2022-08-11T19:38:28.735Z,12.10
2022-08-11T19:41:56.551Z,13.40
2022-08-11T19:44:28.165Z,11.60
2022-08-11T19:47:16.921Z,11.10
2022-08-11T19:50:05.124Z,11.60
2022-08-11T19:52:55.461Z,8.20
2022-08-11T19:55:45.855Z,9.30
2022-08-11T19:58:35.127Z,10.50
2022-08-11T20:01:24.943Z,12.60
2022-08-11T20:04:12.849Z,13.20
2022-08-11T20:07:00.988Z,15.20
2022-08-11T20:10:04.549Z,15.00
2022-08-11T20:12:57.041Z,12.60
2022-08-11T20:15:46.310Z,12.00
2022-08-11T20:18:35.170Z,11.40
2022-08-11T20:21:29.922Z,11.10
2022-08-11T20:24:20.981Z,11.10
2022-08-11T20:27:18.835Z,11.10
2022-08-11T20:30:16.415Z,11.00
2022-08-11T20:33:04.554Z,12.00
2022-08-11T20:35:55.162Z,8.40
2022-08-11T20:38:47.907Z,9.80
2022-08-11T20:41:58.967Z,9.60
2022-08-11T20:44:49.076Z,10.30
2022-08-11T20:47:56.216Z,9.90
2022-08-11T20:50:46.349Z,8.20
2022-08-11T20:53:39.344Z,10.70
2022-08-11T20:56:30.170Z,10.90
2022-08-11T20:59:21.940Z,10.40
2022-08-11T21:02:11.982Z,8.70
2022-08-11T21:05:00.599Z,14.00
2022-08-11T21:07:59.112Z,11.40
2022-08-11T21:10:53.191Z,8.60
2022-08-11T21:13:46.640Z,11.10
2022-08-11T21:16:42.963Z,11.00
2022-08-11T21:20:01.691Z,9.60
2022-08-11T21:23:10.345Z,10.60
2022-08-11T21:26:07.861Z,13.10
2022-08-11T21:28:58.917Z,9.50
2022-08-11T21:31:49.748Z,9.80
2022-08-11T21:34:41.062Z,9.10
2022-08-11T21:37:31.063Z,10.40
2022-08-11T21:40:21.628Z,10.90
2022-08-11T21:43:12.127Z,12.90
2022-08-11T21:46:02.110Z,11.10
2022-08-11T21:48:50.668Z,11.30
2022-08-11T21:51:38.191Z,9.10
2022-08-11T21:54:33.195Z,9.80
2022-08-11T21:57:22.466Z,11.10
2022-08-11T22:00:16.982Z,11.80
2022-08-11T22:03:07.045Z,12.80
2022-08-11T22:05:56.832Z,9.00
2022-08-11T22:08:45.176Z,12.70
2022-08-11T22:11:34.547Z,11.10
2022-08-11T22:14:23.614Z,11.10
2022-08-11T22:17:11.345Z,12.80
2022-08-11T22:20:01.202Z,9.90
2022-08-11T22:22:53.742Z,12.30
2022-08-11T22:25:51.539Z,12.40
2022-08-11T22:28:42.150Z,10.30
2022-08-11T22:31:31.517Z,11.10
2022-08-11T22:34:19.148Z,12.50
2022-08-11T22:37:08.725Z,15.40
2022-08-11T22:40:02.666Z,11.20
2022-08-11T22:42:52.487Z,11.30
2022-08-11T22:45:40.835Z,11.50
2022-08-11T22:48:29.721Z,17.60
2022-08-11T22:51:19.067Z,20.60
2022-08-11T22:54:08.974Z,15.10
2022-08-11T22:56:57.707Z,15.80
2022-08-11T22:59:45.954Z,18.10
2022-08-11T23:02:34.429Z,15.40
2022-08-11T23:05:22.733Z,15.80
2022-08-11T23:08:10.690Z,13.60
2022-08-11T23:10:58.835Z,12.30
2022-08-11T23:13:49.331Z,12.70
2022-08-11T23:16:40.853Z,15.70
2022-08-11T23:20:08.649Z,14.70
2022-08-11T23:22:50.052Z,14.50
2022-08-11T23:25:38.461Z,12.70
2022-08-11T23:28:28.856Z,14.90
2022-08-11T23:31:17.923Z,12.40
2022-08-11T23:34:41.561Z,13.60
2022-08-11T23:37:18.885Z,13.20
2022-08-11T23:40:06.211Z,12.40
2022-08-11T23:42:58.961Z,12.40
2022-08-11T23:45:47.105Z,14.40
2022-08-11T23:48:36.987Z,16.40
2022-08-11T23:51:25.437Z,14.80
2022-08-11T23:54:36.483Z,17.40
2022-08-11T23:57:25.277Z,18.20
